createdAt,value
2023-08-29T00:01:44.809Z,7.00
2023-08-29T00:04:12.760Z,9.75
2023-08-29T00:06:40.624Z,7.50
2023-08-29T00:09:09.478Z,12.00
2023-08-29T00:11:37.343Z,10.00
2023-08-29T00:14:04.724Z,10.50
2023-08-29T00:16:31.456Z,10.00
2023-08-29T00:18:59.284Z,6.00
2023-08-29T00:21:26.665Z,9.50
2023-08-29T00:23:57.006Z,7.50
2023-08-29T00:26:28.501Z,6.00
2023-08-29T00:28:56.170Z,8.75
2023-08-29T00:31:23.535Z,6.00
2023-08-29T00:33:50.644Z,8.25
2023-08-29T00:36:17.475Z,7.00
2023-08-29T00:38:44.878Z,7.50
2023-08-29T00:41:12.285Z,8.75
2023-08-29T00:43:43.157Z,8.00
2023-08-29T00:46:10.635Z,7.75
2023-08-29T00:48:38.680Z,8.25
2023-08-29T00:51:06.059Z,6.00
2023-08-29T00:53:35.019Z,8.25
2023-08-29T00:56:06.371Z,6.50
2023-08-29T00:58:34.626Z,5.50
2023-08-29T01:01:03.429Z,5.00
2023-08-29T01:03:31.542Z,9.00
2023-08-29T01:05:58.848Z,5.00
2023-08-29T01:08:26.555Z,7.50
2023-08-29T01:11:00.038Z,6.00
2023-08-29T01:13:31.567Z,8.75
2023-08-29T01:16:04.268Z,6.25
2023-08-29T01:18:34.439Z,8.75
2023-08-29T01:21:09.829Z,8.00
2023-08-29T01:23:44.079Z,7.00
2023-08-29T01:26:14.941Z,5.25
2023-08-29T01:28:44.929Z,7.50
2023-08-29T01:31:13.903Z,6.00
2023-08-29T01:33:42.251Z,6.00
2023-08-29T01:36:10.271Z,6.75
2023-08-29T01:38:37.621Z,7.00
2023-08-29T01:41:05.242Z,5.00
2023-08-29T01:43:34.368Z,7.25
2023-08-29T01:46:01.933Z,4.25
2023-08-29T01:48:30.431Z,6.00
2023-08-29T01:50:57.834Z,5.25
2023-08-29T01:53:25.347Z,5.00
2023-08-29T01:55:53.186Z,5.75
2023-08-29T01:58:21.793Z,4.75
2023-08-29T02:00:51.476Z,5.25
2023-08-29T02:03:19.165Z,4.00
2023-08-29T02:05:46.204Z,5.00
2023-08-29T02:08:13.536Z,4.75
2023-08-29T02:10:41.179Z,3.25
2023-08-29T02:13:08.583Z,4.75
2023-08-29T02:15:36.163Z,6.25
2023-08-29T02:18:09.010Z,4.25
2023-08-29T02:20:38.449Z,6.00
2023-08-29T02:23:06.197Z,6.25
2023-08-29T02:25:33.637Z,5.00
2023-08-29T02:28:01.149Z,4.00
2023-08-29T02:30:28.932Z,5.50
2023-08-29T02:32:56.431Z,4.75
2023-08-29T02:35:25.810Z,5.75
2023-08-29T02:37:53.092Z,6.25
2023-08-29T02:40:20.872Z,3.00
2023-08-29T02:42:48.315Z,5.50
2023-08-29T02:45:15.769Z,5.25
2023-08-29T02:47:43.591Z,8.00
2023-08-29T02:50:11.296Z,7.00
2023-08-29T02:52:40.285Z,7.50
2023-08-29T02:55:10.747Z,5.75
2023-08-29T02:57:37.520Z,8.25
2023-08-29T03:00:05.953Z,5.50
2023-08-29T03:02:33.765Z,3.00
2023-08-29T03:05:01.080Z,5.00
2023-08-29T03:07:29.337Z,5.25
2023-08-29T03:09:58.823Z,3.75
2023-08-29T03:12:26.286Z,4.00
2023-08-29T03:14:54.203Z,4.25
2023-08-29T03:17:24.186Z,4.00
2023-08-29T03:19:51.503Z,2.25
2023-08-29T03:22:18.905Z,4.75
2023-08-29T03:24:47.141Z,5.75
2023-08-29T03:27:16.072Z,4.25
2023-08-29T03:29:43.309Z,4.75
2023-08-29T03:32:10.738Z,5.00
2023-08-29T03:34:42.505Z,6.50
2023-08-29T03:37:09.797Z,4.75
2023-08-29T03:39:37.317Z,5.25
2023-08-29T03:42:05.330Z,6.25
2023-08-29T03:44:33.433Z,5.75
2023-08-29T03:47:01.033Z,6.25
2023-08-29T03:49:28.365Z,6.50
2023-08-29T03:51:57.271Z,3.25
2023-08-29T03:54:24.919Z,6.25
2023-08-29T03:56:52.656Z,7.25
2023-08-29T03:59:20.351Z,7.50
2023-08-29T04:01:49.238Z,6.25
2023-08-29T04:04:16.863Z,6.00
2023-08-29T04:06:44.747Z,7.50
2023-08-29T04:09:12.113Z,7.25
2023-08-29T04:11:39.477Z,5.25
2023-08-29T04:14:06.969Z,4.75
2023-08-29T04:16:34.462Z,6.25
2023-08-29T04:19:03.416Z,6.00
2023-08-29T04:21:31.383Z,6.75
2023-08-29T04:23:59.051Z,12.00
2023-08-29T04:26:26.320Z,7.67
2023-08-29T04:28:53.695Z,5.33
2023-08-29T04:31:21.746Z,4.33
2023-08-29T04:33:48.519Z,5.33
2023-08-29T04:36:20.476Z,14.00
2023-08-29T04:38:48.072Z,7.67
2023-08-29T04:41:15.535Z,6.67
2023-08-29T04:43:42.214Z,5.33
2023-08-29T04:46:12.526Z,10.33
2023-08-29T04:48:42.341Z,7.67
2023-08-29T04:51:11.948Z,6.67
2023-08-29T04:53:41.058Z,10.33
2023-08-29T04:56:08.562Z,13.67
2023-08-29T04:58:36.312Z,16.00
2023-08-29T05:01:03.841Z,28.25
2023-08-29T05:03:31.610Z,44.50
2023-08-29T05:05:59.301Z,49.00
2023-08-29T05:08:29.787Z,41.75
2023-08-29T05:10:58.849Z,40.25
2023-08-29T05:13:26.764Z,45.50
2023-08-29T05:15:54.223Z,47.75
2023-08-29T05:18:21.533Z,51.50
2023-08-29T05:20:48.783Z,46.50
2023-08-29T05:23:15.932Z,43.50
2023-08-29T05:25:43.512Z,46.25
2023-08-29T05:28:12.439Z,54.25
2023-08-29T05:30:39.883Z,54.00
2023-08-29T05:33:08.892Z,52.00
2023-08-29T05:35:36.374Z,54.00
2023-08-29T05:38:03.798Z,50.00
2023-08-29T05:40:34.237Z,55.00
2023-08-29T05:43:01.910Z,62.50
2023-08-29T05:45:31.974Z,67.25
2023-08-29T05:47:59.573Z,68.25
2023-08-29T05:50:26.991Z,71.50
2023-08-29T05:52:54.326Z,79.25
2023-08-29T05:55:21.508Z,55.00
2023-08-29T05:57:48.272Z,47.75
2023-08-29T06:00:16.451Z,47.75
2023-08-29T06:02:45.380Z,45.25
2023-08-29T06:05:13.134Z,43.75
2023-08-29T06:07:40.378Z,49.00
2023-08-29T06:10:08.074Z,47.75
2023-08-29T06:12:34.875Z,48.25
2023-08-29T06:15:02.271Z,45.75
2023-08-29T06:17:29.057Z,50.25
2023-08-29T06:19:57.434Z,48.50
2023-08-29T06:22:24.121Z,45.75
2023-08-29T06:24:50.975Z,43.00
2023-08-29T06:27:17.764Z,44.00
2023-08-29T06:29:44.526Z,48.50
2023-08-29T06:32:11.231Z,51.00
2023-08-29T06:34:38.000Z,43.75
2023-08-29T06:37:07.283Z,36.25
2023-08-29T06:39:34.024Z,38.75
2023-08-29T06:42:00.796Z,35.00
2023-08-29T06:44:28.353Z,29.75
2023-08-29T06:46:55.677Z,7.75
2023-08-29T06:49:23.101Z,10.25
2023-08-29T06:51:49.800Z,14.50
2023-08-29T06:54:18.714Z,12.75
2023-08-29T06:56:46.233Z,6.67
2023-08-29T06:59:13.963Z,5.25
2023-08-29T07:01:41.323Z,3.00
2023-08-29T07:04:10.311Z,4.50
2023-08-29T07:06:37.076Z,7.00
2023-08-29T07:09:04.753Z,5.25
2023-08-29T07:11:34.027Z,5.25
2023-08-29T07:14:02.171Z,4.00
2023-08-29T07:16:29.696Z,3.00
2023-08-29T07:18:57.044Z,2.00
2023-08-29T07:21:24.495Z,9.75
2023-08-29T07:23:51.319Z,13.25
2023-08-29T07:26:18.086Z,13.25
2023-08-29T07:28:46.225Z,17.00
2023-08-29T07:31:13.130Z,19.00
2023-08-29T07:33:40.008Z,17.00
2023-08-29T07:36:06.777Z,31.25
2023-08-29T07:38:33.463Z,24.75
2023-08-29T07:41:00.334Z,19.25
2023-08-29T07:43:28.372Z,10.75
2023-08-29T07:46:00.071Z,9.00
2023-08-29T07:48:27.164Z,7.75
2023-08-29T07:50:53.860Z,7.25
2023-08-29T07:53:20.652Z,7.50
2023-08-29T07:55:48.260Z,10.50
2023-08-29T07:58:15.921Z,11.00
2023-08-29T08:00:42.688Z,5.50
2023-08-29T08:03:11.373Z,6.75
2023-08-29T08:05:38.114Z,6.75
2023-08-29T08:08:05.659Z,10.50
2023-08-29T08:10:35.073Z,9.50
2023-08-29T08:13:02.015Z,12.25
2023-08-29T08:15:28.827Z,8.50
2023-08-29T08:17:56.363Z,9.50
2023-08-29T08:20:27.518Z,9.25
2023-08-29T08:22:54.712Z,9.50
2023-08-29T08:25:21.396Z,11.00
2023-08-29T08:27:48.880Z,8.00
2023-08-29T08:30:15.679Z,9.25
2023-08-29T08:32:42.467Z,8.25
2023-08-29T08:35:11.643Z,10.50
2023-08-29T08:37:40.886Z,10.25
2023-08-29T08:40:09.208Z,12.00
2023-08-29T08:42:37.481Z,7.50
2023-08-29T08:45:06.968Z,8.75
2023-08-29T08:47:35.123Z,9.00
2023-08-29T08:50:04.540Z,14.50
2023-08-29T08:52:34.397Z,11.20
2023-08-29T08:55:03.237Z,9.00
2023-08-29T08:57:33.060Z,9.50
2023-08-29T08:59:59.782Z,12.25
2023-08-29T09:02:27.545Z,8.00
2023-08-29T09:04:54.668Z,7.25
2023-08-29T09:07:21.430Z,10.50
2023-08-29T09:10:08.231Z,10.00
2023-08-29T09:12:34.992Z,9.75
2023-08-29T09:15:03.171Z,11.50
2023-08-29T09:17:29.996Z,27.25
2023-08-29T09:19:59.170Z,33.00
2023-08-29T09:22:26.168Z,32.00
2023-08-29T09:24:54.000Z,32.00
2023-08-29T09:27:22.606Z,28.25
2023-08-29T09:29:49.600Z,29.50
2023-08-29T09:32:19.259Z,34.33
2023-08-29T09:34:46.789Z,37.25
2023-08-29T09:37:13.674Z,35.25
2023-08-29T09:39:40.921Z,36.75
2023-08-29T09:42:08.916Z,26.75
2023-08-29T09:44:39.949Z,37.50
2023-08-29T09:47:09.377Z,14.25
2023-08-29T09:49:43.813Z,19.00
2023-08-29T09:52:12.091Z,18.50
2023-08-29T09:54:44.668Z,13.75
2023-08-29T09:57:15.056Z,13.50
2023-08-29T09:59:46.883Z,20.75
2023-08-29T10:02:14.995Z,21.00
2023-08-29T10:04:45.781Z,16.75
2023-08-29T10:07:16.615Z,25.50
2023-08-29T10:09:44.616Z,13.75
2023-08-29T10:12:13.088Z,24.67
2023-08-29T10:14:41.799Z,21.50
2023-08-29T10:17:31.037Z,17.75
2023-08-29T10:19:59.539Z,22.00
2023-08-29T10:22:29.356Z,14.25
2023-08-29T10:24:58.497Z,13.50
2023-08-29T10:27:25.962Z,19.25
2023-08-29T10:29:52.818Z,27.75
2023-08-29T10:32:22.399Z,18.50
2023-08-29T10:34:51.437Z,16.75
2023-08-29T10:37:18.800Z,26.80
2023-08-29T10:39:45.628Z,39.25
2023-08-29T10:42:16.643Z,40.25
2023-08-29T10:44:45.727Z,50.50
2023-08-29T10:47:20.820Z,45.75
2023-08-29T10:49:48.401Z,36.25
2023-08-29T10:52:15.741Z,24.25
2023-08-29T10:54:42.639Z,36.50
2023-08-29T10:57:28.677Z,40.50
2023-08-29T10:59:55.830Z,37.75
2023-08-29T11:02:25.838Z,21.67
2023-08-29T11:04:56.211Z,30.00
2023-08-29T11:07:24.695Z,28.75
2023-08-29T11:10:12.567Z,32.50
2023-08-29T11:13:03.450Z,37.25
2023-08-29T11:16:13.338Z,31.50
2023-08-29T11:18:41.606Z,29.75
2023-08-29T11:21:09.616Z,29.67
2023-08-29T11:23:40.954Z,22.75
2023-08-29T11:26:08.820Z,27.50
2023-08-29T11:28:40.344Z,25.75
2023-08-29T11:31:09.769Z,33.50
2023-08-29T11:33:38.107Z,18.25
2023-08-29T11:36:07.745Z,8.50
2023-08-29T11:38:34.880Z,9.25
2023-08-29T11:41:17.395Z,19.00
2023-08-29T11:44:47.351Z,12.00
2023-08-29T11:46:40.912Z,11.75
2023-08-29T11:49:15.460Z,39.50
2023-08-29T11:51:45.054Z,31.75
2023-08-29T11:54:40.936Z,6.50
2023-08-29T11:57:08.814Z,6.00
2023-08-29T11:59:39.612Z,5.75
2023-08-29T12:02:07.456Z,10.50
2023-08-29T12:04:38.890Z,4.50
2023-08-29T12:07:09.088Z,4.60
2023-08-29T12:09:36.584Z,12.25
2023-08-29T12:12:04.679Z,9.75
2023-08-29T12:14:31.544Z,9.60
2023-08-29T12:16:59.021Z,11.00
2023-08-29T12:19:26.515Z,7.20
2023-08-29T12:21:54.572Z,5.40
2023-08-29T12:24:23.503Z,7.20
2023-08-29T12:26:50.710Z,7.80
2023-08-29T12:29:18.138Z,10.80
2023-08-29T12:31:45.517Z,9.40
2023-08-29T12:34:13.063Z,7.60
2023-08-29T12:36:40.810Z,8.00
2023-08-29T12:39:14.789Z,9.60
2023-08-29T12:41:44.313Z,5.00
2023-08-29T12:44:10.962Z,6.80
2023-08-29T12:46:37.933Z,12.80
2023-08-29T12:49:05.680Z,12.00
2023-08-29T12:51:33.135Z,10.00
2023-08-29T12:54:00.305Z,11.00
2023-08-29T12:56:28.134Z,7.40
2023-08-29T12:58:57.034Z,9.20
2023-08-29T13:01:23.867Z,10.60
2023-08-29T13:03:50.686Z,13.60
2023-08-29T13:06:17.456Z,14.00
2023-08-29T13:08:45.519Z,11.80
2023-08-29T13:11:12.787Z,8.80
2023-08-29T13:13:40.307Z,10.20
2023-08-29T13:16:09.246Z,12.00
2023-08-29T13:18:35.974Z,10.40
2023-08-29T13:21:05.143Z,12.20
2023-08-29T13:23:32.935Z,5.25
2023-08-29T13:26:00.292Z,6.00
2023-08-29T13:28:27.614Z,32.75
2023-08-29T13:30:55.343Z,40.25
2023-08-29T13:33:23.970Z,50.25
2023-08-29T13:35:50.801Z,52.00
2023-08-29T13:38:17.537Z,30.75
2023-08-29T13:40:45.742Z,10.00
2023-08-29T13:43:12.815Z,10.75
2023-08-29T13:45:39.833Z,5.40
2023-08-29T13:48:10.910Z,11.00
2023-08-29T13:50:40.347Z,5.60
2023-08-29T13:53:09.789Z,8.60
2023-08-29T13:55:37.576Z,10.20
2023-08-29T13:58:06.306Z,8.40
2023-08-29T14:00:34.197Z,5.20
2023-08-29T14:03:01.667Z,7.80
2023-08-29T14:05:29.399Z,7.60
2023-08-29T14:08:01.120Z,11.00
2023-08-29T14:10:31.038Z,11.00
2023-08-29T14:12:57.848Z,12.00
2023-08-29T14:15:25.386Z,9.40
2023-08-29T14:17:52.862Z,8.60
2023-08-29T14:20:23.184Z,13.60
2023-08-29T14:22:50.324Z,9.60
2023-08-29T14:25:18.602Z,9.00
2023-08-29T14:27:45.945Z,9.00
2023-08-29T14:30:14.092Z,9.60
2023-08-29T14:32:40.842Z,10.40
2023-08-29T14:35:08.200Z,13.40
2023-08-29T14:37:35.610Z,8.00
2023-08-29T14:40:02.936Z,5.20
2023-08-29T14:42:31.062Z,10.40
2023-08-29T14:45:00.404Z,11.20
2023-08-29T14:47:29.398Z,10.20
2023-08-29T14:49:56.157Z,8.20
2023-08-29T14:52:23.260Z,9.80
2023-08-29T14:54:50.558Z,5.80
2023-08-29T14:57:17.800Z,7.40
2023-08-29T14:59:47.603Z,9.20
2023-08-29T15:02:14.967Z,9.00
2023-08-29T15:04:44.311Z,9.60
2023-08-29T15:07:11.253Z,6.80
2023-08-29T15:09:38.801Z,13.60
2023-08-29T15:12:05.867Z,8.20
2023-08-29T15:14:33.670Z,7.60
2023-08-29T15:17:10.091Z,7.40
2023-08-29T15:19:37.535Z,8.80
2023-08-29T15:22:05.053Z,6.80
2023-08-29T15:24:32.250Z,10.00
2023-08-29T15:26:59.017Z,6.40
2023-08-29T15:29:27.035Z,12.75
2023-08-29T15:31:54.334Z,3.60
2023-08-29T15:34:23.137Z,6.20
2023-08-29T15:36:53.525Z,5.20
2023-08-29T15:39:20.989Z,5.00
2023-08-29T15:41:48.958Z,9.20
2023-08-29T15:44:19.947Z,3.60
2023-08-29T15:46:47.325Z,6.20
2023-08-29T15:49:14.791Z,6.50
2023-08-29T15:51:43.687Z,4.60
2023-08-29T15:54:11.240Z,6.00
2023-08-29T15:56:37.941Z,4.20
2023-08-29T15:59:05.476Z,4.80
2023-08-29T16:01:32.947Z,6.60
2023-08-29T16:04:00.719Z,6.40
2023-08-29T16:06:28.197Z,8.00
2023-08-29T16:08:58.579Z,8.00
2023-08-29T16:11:28.108Z,17.50
2023-08-29T16:13:55.711Z,6.00
2023-08-29T16:16:23.240Z,1.00
2023-08-29T16:18:50.734Z,6.40
2023-08-29T16:21:17.886Z,20.50
2023-08-29T16:23:44.653Z,4.20
2023-08-29T16:26:16.953Z,7.00
2023-08-29T16:28:47.270Z,35.25
2023-08-29T16:31:15.161Z,5.20
2023-08-29T16:33:41.942Z,2.80
2023-08-29T16:36:09.244Z,15.50
2023-08-29T16:38:36.567Z,5.40
2023-08-29T16:41:04.343Z,2.00
2023-08-29T16:43:33.061Z,1.80
2023-08-29T16:46:00.456Z,3.40
2023-08-29T16:48:27.890Z,3.00
2023-08-29T16:50:55.795Z,27.25
2023-08-29T16:53:22.620Z,4.80
2023-08-29T16:55:49.966Z,2.80
2023-08-29T16:58:19.242Z,4.40
2023-08-29T17:00:48.347Z,3.20
2023-08-29T17:03:15.776Z,10.25
2023-08-29T17:05:42.633Z,2.00
2023-08-29T17:08:09.769Z,4.00
2023-08-29T17:10:41.804Z,3.20
2023-08-29T17:13:09.139Z,2.60
2023-08-29T17:15:35.960Z,10.25
2023-08-29T17:18:07.160Z,4.00
2023-08-29T17:20:34.652Z,3.40
2023-08-29T17:23:02.169Z,3.00
2023-08-29T17:25:30.390Z,0.00
2023-08-29T17:27:57.180Z,7.20
2023-08-29T17:30:27.220Z,3.20
2023-08-29T17:32:57.832Z,2.00
2023-08-29T17:35:26.772Z,5.20
2023-08-29T17:37:54.833Z,2.40
2023-08-29T17:40:22.584Z,4.00
2023-08-29T17:42:50.041Z,3.40
2023-08-29T17:45:17.285Z,1.60
2023-08-29T17:47:44.573Z,4.00
2023-08-29T17:50:11.828Z,4.60
2023-08-29T17:52:40.686Z,4.60
2023-08-29T17:55:09.055Z,4.40
2023-08-29T17:57:36.283Z,4.00
2023-08-29T18:00:04.038Z,4.80
2023-08-29T18:02:31.305Z,6.40
2023-08-29T18:04:58.600Z,3.00
2023-08-29T18:07:25.419Z,5.00
2023-08-29T18:10:09.613Z,6.00
2023-08-29T18:12:38.522Z,4.25
2023-08-29T18:15:07.365Z,4.75
2023-08-29T18:17:34.767Z,3.60
2023-08-29T18:20:02.314Z,3.25
2023-08-29T18:22:30.497Z,6.50
2023-08-29T18:24:58.005Z,2.75
2023-08-29T18:27:26.856Z,3.50
2023-08-29T18:29:53.674Z,6.00
2023-08-29T18:32:20.463Z,6.00
2023-08-29T18:34:48.036Z,3.50
2023-08-29T18:37:14.765Z,3.50
2023-08-29T18:39:41.944Z,4.50
2023-08-29T18:42:09.979Z,3.25
2023-08-29T18:44:39.482Z,5.25
2023-08-29T18:47:07.219Z,4.00
2023-08-29T18:49:34.684Z,3.75
2023-08-29T18:52:02.067Z,5.50
2023-08-29T18:54:29.699Z,4.25
2023-08-29T18:56:57.110Z,6.00
2023-08-29T18:59:27.709Z,6.00
2023-08-29T19:01:56.722Z,3.25
2023-08-29T19:04:24.085Z,7.25
2023-08-29T19:06:50.889Z,4.75
2023-08-29T19:09:18.156Z,5.25
2023-08-29T19:11:45.666Z,7.00
2023-08-29T19:14:12.500Z,6.00
2023-08-29T19:16:42.817Z,4.75
2023-08-29T19:19:12.110Z,6.00
2023-08-29T19:21:39.131Z,5.25
2023-08-29T19:24:07.164Z,6.50
2023-08-29T19:26:39.875Z,6.50
2023-08-29T19:29:09.863Z,5.00
2023-08-29T19:31:36.974Z,5.00
2023-08-29T19:34:03.740Z,5.50
2023-08-29T19:36:32.875Z,3.50
2023-08-29T19:39:12.188Z,4.00
2023-08-29T19:41:44.935Z,4.00
2023-08-29T19:44:12.505Z,4.00
2023-08-29T19:46:40.450Z,5.25
2023-08-29T19:49:08.241Z,5.75
2023-08-29T19:51:38.703Z,4.50
2023-08-29T19:54:06.756Z,5.00
2023-08-29T19:56:34.172Z,6.50
2023-08-29T19:59:00.960Z,4.50
2023-08-29T20:01:28.061Z,4.00
2023-08-29T20:03:55.602Z,5.50
2023-08-29T20:06:24.019Z,6.00
2023-08-29T20:08:52.983Z,6.25
2023-08-29T20:11:20.358Z,6.25
2023-08-29T20:13:47.168Z,5.50
2023-08-29T20:16:14.520Z,4.25
2023-08-29T20:18:41.914Z,6.50
2023-08-29T20:21:09.124Z,4.00
2023-08-29T20:23:39.714Z,7.25
2023-08-29T20:26:16.996Z,4.25
2023-08-29T20:28:44.632Z,7.00
2023-08-29T20:31:15.144Z,9.25
2023-08-29T20:33:41.952Z,9.25
2023-08-29T20:36:14.367Z,8.25
2023-08-29T20:38:41.731Z,6.50
2023-08-29T20:41:09.748Z,7.25
2023-08-29T20:43:38.888Z,8.50
2023-08-29T20:46:09.004Z,8.00
2023-08-29T20:48:36.702Z,8.75
2023-08-29T20:51:04.556Z,11.25
2023-08-29T20:53:35.263Z,10.00
2023-08-29T20:56:02.074Z,5.75
2023-08-29T20:58:29.522Z,7.50
2023-08-29T21:00:58.505Z,12.50
2023-08-29T21:03:25.862Z,5.50
2023-08-29T21:05:52.731Z,7.75
2023-08-29T21:08:20.174Z,9.25
2023-08-29T21:10:47.388Z,11.25
2023-08-29T21:13:15.294Z,9.25
2023-08-29T21:15:42.665Z,9.50
2023-08-29T21:18:11.542Z,5.67
2023-08-29T21:20:39.637Z,7.50
2023-08-29T21:23:07.017Z,7.50
2023-08-29T21:25:36.593Z,19.67
2023-08-29T21:28:04.367Z,15.50
2023-08-29T21:30:32.010Z,23.25
2023-08-29T21:32:58.856Z,21.75
2023-08-29T21:35:27.021Z,23.50
2023-08-29T21:37:53.674Z,25.25
2023-08-29T21:40:20.463Z,19.00
2023-08-29T21:42:49.820Z,13.25
2023-08-29T21:45:17.170Z,18.00
2023-08-29T21:47:48.363Z,13.00
2023-08-29T21:50:15.894Z,6.75
2023-08-29T21:52:44.689Z,8.75
2023-08-29T21:55:12.461Z,7.75
2023-08-29T21:57:40.541Z,11.00
2023-08-29T22:00:09.395Z,10.75
2023-08-29T22:02:36.345Z,8.75
2023-08-29T22:05:03.800Z,10.00
2023-08-29T22:07:31.263Z,13.00
2023-08-29T22:09:59.457Z,16.00
2023-08-29T22:12:26.673Z,13.25
2023-08-29T22:14:53.960Z,27.25
2023-08-29T22:17:21.478Z,40.75
2023-08-29T22:19:48.280Z,37.75
2023-08-29T22:22:15.901Z,50.75
2023-08-29T22:24:42.750Z,56.75
2023-08-29T22:27:11.445Z,59.00
2023-08-29T22:29:38.745Z,49.75
2023-08-29T22:32:06.150Z,41.50
2023-08-29T22:34:33.975Z,49.25
2023-08-29T22:37:00.891Z,38.50
2023-08-29T22:39:28.157Z,26.50
2023-08-29T22:41:55.811Z,35.25
2023-08-29T22:44:27.809Z,38.00
2023-08-29T22:46:58.270Z,22.33
2023-08-29T22:49:25.716Z,15.50
2023-08-29T22:51:52.971Z,17.33
2023-08-29T22:54:22.501Z,22.67
2023-08-29T22:56:49.893Z,28.00
2023-08-29T22:59:17.130Z,21.25
2023-08-29T23:01:48.307Z,16.33
2023-08-29T23:04:15.802Z,18.00
2023-08-29T23:06:43.765Z,18.67
2023-08-29T23:09:12.409Z,32.00
2023-08-29T23:11:42.329Z,32.00
2023-08-29T23:14:09.978Z,8.67
2023-08-29T23:16:37.616Z,12.50
2023-08-29T23:19:06.445Z,7.00
2023-08-29T23:21:33.682Z,7.25
2023-08-29T23:24:01.447Z,10.75
2023-08-29T23:26:29.171Z,9.50
2023-08-29T23:28:59.431Z,7.25
2023-08-29T23:31:27.105Z,6.75
2023-08-29T23:33:55.504Z,8.25
2023-08-29T23:36:24.728Z,9.50
2023-08-29T23:38:52.598Z,10.50
2023-08-29T23:41:23.099Z,4.75
2023-08-29T23:43:49.909Z,8.50
2023-08-29T23:46:17.415Z,12.00
2023-08-29T23:48:44.822Z,12.50
2023-08-29T23:51:12.362Z,15.25
2023-08-29T23:53:43.402Z,6.00
2023-08-29T23:56:10.712Z,14.00
2023-08-29T23:58:38.484Z,12.00
